Аэропорт: Сургут. Сургут

ICAO: USRR

METAR:
2022-06-26 11:00:00
USRR 261100Z 33003MPS 300V360 9999 SCT025CB 19/13 Q0994 R07/290060 TEMPO 2000 TSRA RMK QFE740
METAR:
2022-06-26 07:55:00
TAF USRR 260755Z 2609/2709 28003G08MPS 6000 -SHRA FEW011 BKN020CB TEMPO 2609/2615 VRB18MPS 2000 TSRA SQ SCT005 BKN016CB